Aviation Digital Data Service (ADDS)

Output produced by METARs form (1115 UTC 17 June 2019)
found at http://www.aviationweather.gov/metar/data/
 
METAR text: RJCN 170900Z VRB02KT 9999 -SHRA FEW008 SCT020 BKN030 09/06 Q1002
Conditions at: RJCN (NAKASHIBETSU ARP, JP) observed 0900 UTC 17 June 2019
Temperature: 9.0°C (48°F)
Dewpoint: 6.0°C (43°F) [RH = 81%]
Pressure (altimeter): 29.59 inches Hg (1002.0 mb)
Winds: variable direction winds at 2 MPH (2 knots; 1.0 m/s)
Visibility: 6 or more miles (10+ km)
Ceiling: 3000 feet AGL
Clouds: few clouds at 800 feet AGL
scattered clouds at 2000 feet AGL
broken clouds at 3000 feet AGL
Weather: -SHRA  (light rain showers)

METAR text: RJCN 170800Z 29006KT 250V040 9999 -SHRA FEW005 SCT020 BKN030 08/05 Q1002
Conditions at: RJCN (NAKASHIBETSU ARP, JP) observed 0800 UTC 17 June 2019
Temperature: 8.0°C (46°F)
Dewpoint: 5.0°C (41°F) [RH = 81%]
Pressure (altimeter): 29.59 inches Hg (1002.0 mb)
Winds: from the WNW (290 degrees) at 7 MPH (6 knots; 3.1 m/s)
Visibility: 6 or more miles (10+ km)
Ceiling: 3000 feet AGL
Clouds: few clouds at 500 feet AGL
scattered clouds at 2000 feet AGL
broken clouds at 3000 feet AGL
Weather: -SHRA  (light rain showers)

METAR text: RJCN 170700Z VRB06KT 9999 -SHRA FEW012 SCT030 BKN040 09/05 Q1000
Conditions at: RJCN (NAKASHIBETSU ARP, JP) observed 0700 UTC 17 June 2019
Temperature: 9.0°C (48°F)
Dewpoint: 5.0°C (41°F) [RH = 76%]
Pressure (altimeter): 29.53 inches Hg (1000.0 mb)
Winds: variable direction winds at 7 MPH (6 knots; 3.1 m/s)
Visibility: 6 or more miles (10+ km)
Ceiling: 4000 feet AGL
Clouds: few clouds at 1200 feet AGL
scattered clouds at 3000 feet AGL
broken clouds at 4000 feet AGL
Weather: -SHRA  (light rain showers)

METAR text: RJCN 170600Z 32015G26KT 270V360 9999 FEW015 SCT030 BKN090 10/05 Q0998
Conditions at: RJCN (NAKASHIBETSU ARP, JP) observed 0600 UTC 17 June 2019
Temperature: 10.0°C (50°F)
Dewpoint: 5.0°C (41°F) [RH = 71%]
Pressure (altimeter): 29.47 inches Hg (998.0 mb)
Winds: from the NW (320 degrees) at 17 MPH (15 knots; 7.7 m/s)
gusting to 30 MPH (26 knots; 13.4 m/s)
Visibility: 6 or more miles (10+ km)
Ceiling: 9000 feet AGL
Clouds: few clouds at 1500 feet AGL
scattered clouds at 3000 feet AGL
broken clouds at 9000 feet AGL
Weather: no significant weather observed at this time

METAR text: RJCN 170500Z VRB06G16KT 9999 FEW015 SCT030 BKN090 11/05 Q0998
Conditions at: RJCN (NAKASHIBETSU ARP, JP) observed 0500 UTC 17 June 2019
Temperature: 11.0°C (52°F)
Dewpoint: 5.0°C (41°F) [RH = 66%]
Pressure (altimeter): 29.47 inches Hg (998.0 mb)
Winds: variable direction winds at 7 MPH (6 knots; 3.1 m/s)
gusting to 18 MPH (16 knots; 8.2 m/s)
Visibility: 6 or more miles (10+ km)
Ceiling: 9000 feet AGL
Clouds: few clouds at 1500 feet AGL
scattered clouds at 3000 feet AGL
broken clouds at 9000 feet AGL
Weather: no significant weather observed at this time

METAR text: RJCN 170400Z VRB07KT 9999 FEW015 BKN030 13/07 Q0997
Conditions at: RJCN (NAKASHIBETSU ARP, JP) observed 0400 UTC 17 June 2019
Temperature: 13.0°C (55°F)
Dewpoint: 7.0°C (45°F) [RH = 67%]
Pressure (altimeter): 29.44 inches Hg (997.0 mb)
Winds: variable direction winds at 8 MPH (7 knots; 3.6 m/s)
Visibility: 6 or more miles (10+ km)
Ceiling: 3000 feet AGL
Clouds: few clouds at 1500 feet AGL
broken clouds at 3000 feet AGL
Weather: no significant weather observed at this time

METAR text: RJCN 170300Z 06011KT 9999 FEW015 SCT030 14/07 Q0995
Conditions at: RJCN (NAKASHIBETSU ARP, JP) observed 0300 UTC 17 June 2019
Temperature: 14.0°C (57°F)
Dewpoint: 7.0°C (45°F) [RH = 63%]
Pressure (altimeter): 29.38 inches Hg (995.0 mb)
Winds: from the ENE (60 degrees) at 13 MPH (11 knots; 5.7 m/s)
Visibility: 6 or more miles (10+ km)
Ceiling: at least 12,000 feet AGL
Clouds: few clouds at 1500 feet AGL
scattered clouds at 3000 feet AGL
Weather: no significant weather observed at this time

METAR text: RJCN 170200Z VRB06KT 9999 FEW015 14/07 Q0994
Conditions at: RJCN (NAKASHIBETSU ARP, JP) observed 0200 UTC 17 June 2019
Temperature: 14.0°C (57°F)
Dewpoint: 7.0°C (45°F) [RH = 63%]
Pressure (altimeter): 29.35 inches Hg (994.0 mb)
Winds: variable direction winds at 7 MPH (6 knots; 3.1 m/s)
Visibility: 6 or more miles (10+ km)
Ceiling: at least 12,000 feet AGL
Clouds: few clouds at 1500 feet AGL
Weather: no significant weather observed at this time

METAR text: RJCN 170100Z VRB03KT 9999 FEW015 SCT100 13/06 Q0993
Conditions at: RJCN (NAKASHIBETSU ARP, JP) observed 0100 UTC 17 June 2019
Temperature: 13.0°C (55°F)
Dewpoint: 6.0°C (43°F) [RH = 62%]
Pressure (altimeter): 29.32 inches Hg (993.0 mb)
Winds: variable direction winds at 3 MPH (3 knots; 1.5 m/s)
Visibility: 6 or more miles (10+ km)
Ceiling: at least 12,000 feet AGL
Clouds: few clouds at 1500 feet AGL
scattered clouds at 10000 feet AGL
Weather: no significant weather observed at this time

METAR text: RJCN 170000Z 27005KT 230V330 9999 -SHRA FEW015 SCT025 BKN100 12/06 Q0992
Conditions at: RJCN (NAKASHIBETSU ARP, JP) observed 0000 UTC 17 June 2019
Temperature: 12.0°C (54°F)
Dewpoint: 6.0°C (43°F) [RH = 67%]
Pressure (altimeter): 29.29 inches Hg (992.0 mb)
Winds: from the W (270 degrees) at 6 MPH (5 knots; 2.6 m/s)
Visibility: 6 or more miles (10+ km)
Ceiling: 10000 feet AGL
Clouds: few clouds at 1500 feet AGL
scattered clouds at 2500 feet AGL
broken clouds at 10000 feet AGL
Weather: -SHRA  (light rain showers)

METAR text: RJCN 162330Z VRB03KT 9999 FEW015 SCT025 BKN120 12/06 Q0991
Conditions at: RJCN (NAKASHIBETSU ARP, JP) observed 2330 UTC 16 June 2019
Temperature: 12.0°C (54°F)
Dewpoint: 6.0°C (43°F) [RH = 67%]
Pressure (altimeter): 29.26 inches Hg (991.0 mb)
Winds: variable direction winds at 3 MPH (3 knots; 1.5 m/s)
Visibility: 6 or more miles (10+ km)
Ceiling: 12000 feet AGL
Clouds: few clouds at 1500 feet AGL
scattered clouds at 2500 feet AGL
broken clouds at 12000 feet AGL
Weather: no significant weather observed at this time

METAR text: RJCN 160916Z 03010KT 360V060 5000 -SHRA BR FEW004 SCT005 BKN006 11/10 Q0988 RMK 1ST004 3ST005 6ST006 A2919
Conditions at: RJCN (NAKASHIBETSU ARP, JP) observed 0916 UTC 16 June 2019
Temperature: 11.0°C (52°F)
Dewpoint: 10.0°C (50°F) [RH = 94%]
Pressure (altimeter): 29.17 inches Hg (988.0 mb)
Winds: from the NNE (30 degrees) at 12 MPH (10 knots; 5.1 m/s)
Visibility: 3 miles ( 5 km)
Ceiling: 600 feet AGL
Clouds: few clouds at 400 feet AGL
scattered clouds at 500 feet AGL
broken clouds at 600 feet AGL
Weather: -SHRA BR  (light rain showers, mist)

METAR text: RJCN 160900Z 03012KT 350V050 3200 SHRA BR FEW004 SCT005 BKN006 11/10 Q0989
Conditions at: RJCN (NAKASHIBETSU ARP, JP) observed 0900 UTC 16 June 2019
Temperature: 11.0°C (52°F)
Dewpoint: 10.0°C (50°F) [RH = 94%]
Pressure (altimeter): 29.20 inches Hg (989.0 mb)
Winds: from the NNE (30 degrees) at 14 MPH (12 knots; 6.2 m/s)
Visibility: 1.99 miles (3.20 km)
Ceiling: 600 feet AGL
Clouds: few clouds at 400 feet AGL
scattered clouds at 500 feet AGL
broken clouds at 600 feet AGL
Weather: SHRA BR  (rain showers, mist)

METAR text: RJCN 160842Z 04012G22KT 360V070 3100 +TSRA BR FEW004 SCT005 BKN006 11/10 Q0989 RMK 1ST004 4ST005 7ST006 A2921 FBL TS 15KM SE MOV N
Conditions at: RJCN (NAKASHIBETSU ARP, JP) observed 0842 UTC 16 June 2019
Temperature: 11.0°C (52°F)
Dewpoint: 10.0°C (50°F) [RH = 94%]
Pressure (altimeter): 29.20 inches Hg (989.0 mb)
Winds: from the NE (40 degrees) at 14 MPH (12 knots; 6.2 m/s)
gusting to 25 MPH (22 knots; 11.3 m/s)
Visibility: 1.93 miles (3.11 km)
Ceiling: 600 feet AGL
Clouds: few clouds at 400 feet AGL
scattered clouds at 500 feet AGL
broken clouds at 600 feet AGL
Weather: +TSRA BR  (heavy rain associated with thunderstorm(s), mist)

METAR text: RJCN 160833Z 02009KT 350V060 3500 TSRA BR FEW004 SCT005 BKN006 11/10 Q0989 RMK 1ST004 4ST005 7ST006 A2922 FBL TS 15KM SE MOV N
Conditions at: RJCN (NAKASHIBETSU ARP, JP) observed 0833 UTC 16 June 2019
Temperature: 11.0°C (52°F)
Dewpoint: 10.0°C (50°F) [RH = 94%]
Pressure (altimeter): 29.20 inches Hg (989.0 mb)
Winds: from the NNE (20 degrees) at 10 MPH (9 knots; 4.6 m/s)
Visibility: 2.17 miles (3.49 km)
Ceiling: 600 feet AGL
Clouds: few clouds at 400 feet AGL
scattered clouds at 500 feet AGL
broken clouds at 600 feet AGL
Weather: TSRA BR  (rain associated with thunderstorm(s), mist)

METAR text: RJCN 160825Z 02010KT 340V080 3200 R08/1400VP2000U SHRA BR FEW004 SCT005 BKN006 11/10 Q0989 RMK 1ST004 4ST005 7ST006 A2922
Conditions at: RJCN (NAKASHIBETSU ARP, JP) observed 0825 UTC 16 June 2019
Temperature: 11.0°C (52°F)
Dewpoint: 10.0°C (50°F) [RH = 94%]
Pressure (altimeter): 29.20 inches Hg (989.0 mb)
Winds: from the NNE (20 degrees) at 12 MPH (10 knots; 5.1 m/s)
Visibility: 1.99 miles (3.20 km)
Ceiling: 600 feet AGL
Clouds: few clouds at 400 feet AGL
scattered clouds at 500 feet AGL
broken clouds at 600 feet AGL
Weather: SHRA BR  (rain showers, mist)

METAR text: RJCN 160815Z 04012KT 3100 R08/2000N +SHRA BR FEW004 SCT005 BKN006 11/10 Q0989 RMK 1ST004 4ST005 7ST006 A2922 RI++
Conditions at: RJCN (NAKASHIBETSU ARP, JP) observed 0815 UTC 16 June 2019
Temperature: 11.0°C (52°F)
Dewpoint: 10.0°C (50°F) [RH = 94%]
Pressure (altimeter): 29.20 inches Hg (989.0 mb)
Winds: from the NE (40 degrees) at 14 MPH (12 knots; 6.2 m/s)
Visibility: 1.93 miles (3.11 km)
Ceiling: 600 feet AGL
Clouds: few clouds at 400 feet AGL
scattered clouds at 500 feet AGL
broken clouds at 600 feet AGL
Weather: +SHRA BR  (heavy rain showers, mist)

METAR text: RJCN 160800Z 04014KT 360V080 3500 SHRA BR FEW004 SCT005 BKN006 11/10 Q0989
Conditions at: RJCN (NAKASHIBETSU ARP, JP) observed 0800 UTC 16 June 2019
Temperature: 11.0°C (52°F)
Dewpoint: 10.0°C (50°F) [RH = 94%]
Pressure (altimeter): 29.20 inches Hg (989.0 mb)
Winds: from the NE (40 degrees) at 16 MPH (14 knots; 7.2 m/s)
Visibility: 2.17 miles (3.49 km)
Ceiling: 600 feet AGL
Clouds: few clouds at 400 feet AGL
scattered clouds at 500 feet AGL
broken clouds at 600 feet AGL
Weather: SHRA BR  (rain showers, mist)

METAR text: RJCN 160700Z 03014G24KT 350V060 3200 SHRA BR FEW004 BKN005 BKN006 10/10 Q0989
Conditions at: RJCN (NAKASHIBETSU ARP, JP) observed 0700 UTC 16 June 2019
Temperature: 10.0°C (50°F)
Dewpoint: 10.0°C (50°F) [RH = 100%]
Pressure (altimeter): 29.20 inches Hg (989.0 mb)
Winds: from the NNE (30 degrees) at 16 MPH (14 knots; 7.2 m/s)
gusting to 28 MPH (24 knots; 12.3 m/s)
Visibility: 1.99 miles (3.20 km)
Ceiling: 500 feet AGL
Clouds: few clouds at 400 feet AGL
broken clouds at 500 feet AGL
broken clouds at 600 feet AGL
Weather: SHRA BR  (rain showers, mist)

METAR text: RJCN 160644Z 03014KT 2500 SHRA BR FEW003 SCT004 BKN005 10/10 Q0990 RMK 1ST003 4ST004 7ST005 A2924 P/FR
Conditions at: RJCN (NAKASHIBETSU ARP, JP) observed 0644 UTC 16 June 2019
Temperature: 10.0°C (50°F)
Dewpoint: 10.0°C (50°F) [RH = 100%]
Pressure (altimeter): 29.23 inches Hg (990.0 mb)
Winds: from the NNE (30 degrees) at 16 MPH (14 knots; 7.2 m/s)
Visibility: 1.55 miles (2.49 km)
Ceiling: 500 feet AGL
Clouds: few clouds at 300 feet AGL
scattered clouds at 400 feet AGL
broken clouds at 500 feet AGL
Weather: SHRA BR  (rain showers, mist)

METAR text: RJCN 160631Z 03012KT 360V070 2400 -SHRA BR FEW003 SCT004 BKN005 11/10 Q0990 RMK 1ST003 4ST004 7ST005 A2926
Conditions at: RJCN (NAKASHIBETSU ARP, JP) observed 0631 UTC 16 June 2019
Temperature: 11.0°C (52°F)
Dewpoint: 10.0°C (50°F) [RH = 94%]
Pressure (altimeter): 29.23 inches Hg (990.0 mb)
Winds: from the NNE (30 degrees) at 14 MPH (12 knots; 6.2 m/s)
Visibility: 1.49 miles (2.40 km)
Ceiling: 500 feet AGL
Clouds: few clouds at 300 feet AGL
scattered clouds at 400 feet AGL
broken clouds at 500 feet AGL
Weather: -SHRA BR  (light rain showers, mist)

METAR text: RJCN 160610Z 03013G23KT 350V070 2000 SHRA BR FEW003 BKN004 BKN005 11/10 Q0991 RMK 1ST003 5ST004 7ST005 A2926
Conditions at: RJCN (NAKASHIBETSU ARP, JP) observed 0610 UTC 16 June 2019
Temperature: 11.0°C (52°F)
Dewpoint: 10.0°C (50°F) [RH = 94%]
Pressure (altimeter): 29.26 inches Hg (991.0 mb)
Winds: from the NNE (30 degrees) at 15 MPH (13 knots; 6.7 m/s)
gusting to 26 MPH (23 knots; 11.8 m/s)
Visibility: 1.24 miles (2.00 km)
Ceiling: 400 feet AGL
Clouds: few clouds at 300 feet AGL
broken clouds at 400 feet AGL
broken clouds at 500 feet AGL
Weather: SHRA BR  (rain showers, mist)

METAR text: RJCN 160600Z 03014KT 360V060 2000 TSRA BR FEW003 BKN004 BKN005 11/10 Q0990
Conditions at: RJCN (NAKASHIBETSU ARP, JP) observed 0600 UTC 16 June 2019
Temperature: 11.0°C (52°F)
Dewpoint: 10.0°C (50°F) [RH = 94%]
Pressure (altimeter): 29.23 inches Hg (990.0 mb)
Winds: from the NNE (30 degrees) at 16 MPH (14 knots; 7.2 m/s)
Visibility: 1.24 miles (2.00 km)
Ceiling: 400 feet AGL
Clouds: few clouds at 300 feet AGL
broken clouds at 400 feet AGL
broken clouds at 500 feet AGL
Weather: TSRA BR  (rain associated with thunderstorm(s), mist)

METAR text: RJCN 160500Z 03014G25KT 360V060 1800 R08/2000N -SHRA BR FEW003 BKN004 BKN005 11/11 Q0992
Conditions at: RJCN (NAKASHIBETSU ARP, JP) observed 0500 UTC 16 June 2019
Temperature: 11.0°C (52°F)
Dewpoint: 11.0°C (52°F) [RH = 100%]
Pressure (altimeter): 29.29 inches Hg (992.0 mb)
Winds: from the NNE (30 degrees) at 16 MPH (14 knots; 7.2 m/s)
gusting to 29 MPH (25 knots; 12.9 m/s)
Visibility: 1.12 miles (1.80 km)
Ceiling: 400 feet AGL
Clouds: few clouds at 300 feet AGL
broken clouds at 400 feet AGL
broken clouds at 500 feet AGL
Weather: -SHRA BR  (light rain showers, mist)

METAR text: RJCN 160400Z 04016G27KT 2000 R08/2000N -SHRA BR FEW003 SCT004 BKN005 12/12 Q0993
Conditions at: RJCN (NAKASHIBETSU ARP, JP) observed 0400 UTC 16 June 2019
Temperature: 12.0°C (54°F)
Dewpoint: 12.0°C (54°F) [RH = 100%]
Pressure (altimeter): 29.32 inches Hg (993.0 mb)
Winds: from the NE (40 degrees) at 18 MPH (16 knots; 8.2 m/s)
gusting to 31 MPH (27 knots; 13.9 m/s)
Visibility: 1.24 miles (2.00 km)
Ceiling: 500 feet AGL
Clouds: few clouds at 300 feet AGL
scattered clouds at 400 feet AGL
broken clouds at 500 feet AGL
Weather: -SHRA BR  (light rain showers, mist)

METAR text: RJCN 160300Z 04016KT 010V070 1800 R08/2000N -SHRA BR FEW002 SCT003 BKN004 12/12 Q0995
Conditions at: RJCN (NAKASHIBETSU ARP, JP) observed 0300 UTC 16 June 2019
Temperature: 12.0°C (54°F)
Dewpoint: 12.0°C (54°F) [RH = 100%]
Pressure (altimeter): 29.38 inches Hg (995.0 mb)
Winds: from the NE (40 degrees) at 18 MPH (16 knots; 8.2 m/s)
Visibility: 1.12 miles (1.80 km)
Ceiling: 400 feet AGL
Clouds: few clouds at 200 feet AGL
scattered clouds at 300 feet AGL
broken clouds at 400 feet AGL
Weather: -SHRA BR  (light rain showers, mist)

METAR text: RJCN 160213Z 04017KT 010V070 1600 R08/1400U SHRA BR FEW002 SCT003 BKN004 12/12 Q0996 RMK 1ST002 4ST003 7ST004 A2941 P/FR
Conditions at: RJCN (NAKASHIBETSU ARP, JP) observed 0213 UTC 16 June 2019
Temperature: 12.0°C (54°F)
Dewpoint: 12.0°C (54°F) [RH = 100%]
Pressure (altimeter): 29.41 inches Hg (996.0 mb)
Winds: from the NE (40 degrees) at 20 MPH (17 knots; 8.7 m/s)
Visibility: 0.99 miles (1.59 km)
Ceiling: 400 feet AGL
Clouds: few clouds at 200 feet AGL
scattered clouds at 300 feet AGL
broken clouds at 400 feet AGL
Weather: SHRA BR  (rain showers, mist)

METAR text: RJCN 160203Z 03015KT 1500 R08/1100V1700D SHRA BR FEW002 SCT003 BKN004 12/11 Q0996 RMK 1ST002 4ST003 7ST004 A2941 P/FR
Conditions at: RJCN (NAKASHIBETSU ARP, JP) observed 0203 UTC 16 June 2019
Temperature: 12.0°C (54°F)
Dewpoint: 11.0°C (52°F) [RH = 94%]
Pressure (altimeter): 29.41 inches Hg (996.0 mb)
Winds: from the NNE (30 degrees) at 17 MPH (15 knots; 7.7 m/s)
Visibility: 0.93 miles (1.50 km)
Ceiling: 400 feet AGL
Clouds: few clouds at 200 feet AGL
scattered clouds at 300 feet AGL
broken clouds at 400 feet AGL
Weather: SHRA BR  (rain showers, mist)

METAR text: RJCN 160200Z 03014KT 360V070 1500 R08/1200V1700D SHRA BR FEW002 SCT003 BKN004 12/11 Q0996
Conditions at: RJCN (NAKASHIBETSU ARP, JP) observed 0200 UTC 16 June 2019
Temperature: 12.0°C (54°F)
Dewpoint: 11.0°C (52°F) [RH = 94%]
Pressure (altimeter): 29.41 inches Hg (996.0 mb)
Winds: from the NNE (30 degrees) at 16 MPH (14 knots; 7.2 m/s)
Visibility: 0.93 miles (1.50 km)
Ceiling: 400 feet AGL
Clouds: few clouds at 200 feet AGL
scattered clouds at 300 feet AGL
broken clouds at 400 feet AGL
Weather: SHRA BR  (rain showers, mist)

METAR text: RJCN 160131Z 04014KT 2000 R08/2000N -SHRA BR FEW002 SCT003 BKN004 11/11 Q0997 RMK 1ST002 4ST003 7ST004 A2945
Conditions at: RJCN (NAKASHIBETSU ARP, JP) observed 0131 UTC 16 June 2019
Temperature: 11.0°C (52°F)
Dewpoint: 11.0°C (52°F) [RH = 100%]
Pressure (altimeter): 29.44 inches Hg (997.0 mb)
Winds: from the NE (40 degrees) at 16 MPH (14 knots; 7.2 m/s)
Visibility: 1.24 miles (2.00 km)
Ceiling: 400 feet AGL
Clouds: few clouds at 200 feet AGL
scattered clouds at 300 feet AGL
broken clouds at 400 feet AGL
Weather: -SHRA BR  (light rain showers, mist)

METAR text: RJCN 160100Z 05019G30KT 2000 SHRA BR FEW002 SCT003 BKN004 12/11 Q0996
Conditions at: RJCN (NAKASHIBETSU ARP, JP) observed 0100 UTC 16 June 2019
Temperature: 12.0°C (54°F)
Dewpoint: 11.0°C (52°F) [RH = 94%]
Pressure (altimeter): 29.41 inches Hg (996.0 mb)
Winds: from the NE (50 degrees) at 22 MPH (19 knots; 9.8 m/s)
gusting to 34 MPH (30 knots; 15.4 m/s)
Visibility: 1.24 miles (2.00 km)
Ceiling: 400 feet AGL
Clouds: few clouds at 200 feet AGL
scattered clouds at 300 feet AGL
broken clouds at 400 feet AGL
Weather: SHRA BR  (rain showers, mist)

METAR text: RJCN 160029Z 05015KT 2000 R08/2000N SHRA BR FEW002 SCT003 BKN004 11/11 Q1000 RMK 1ST002 4ST003 7ST004 A2953
Conditions at: RJCN (NAKASHIBETSU ARP, JP) observed 0029 UTC 16 June 2019
Temperature: 11.0°C (52°F)
Dewpoint: 11.0°C (52°F) [RH = 100%]
Pressure (altimeter): 29.53 inches Hg (1000.0 mb)
Winds: from the NE (50 degrees) at 17 MPH (15 knots; 7.7 m/s)
Visibility: 1.24 miles (2.00 km)
Ceiling: 400 feet AGL
Clouds: few clouds at 200 feet AGL
scattered clouds at 300 feet AGL
broken clouds at 400 feet AGL
Weather: SHRA BR  (rain showers, mist)

METAR text: RJCN 160000Z 05014KT 2000 R08/2000N -SHRA BR FEW002 SCT003 BKN004 11/11 Q1000
Conditions at: RJCN (NAKASHIBETSU ARP, JP) observed 0000 UTC 16 June 2019
Temperature: 11.0°C (52°F)
Dewpoint: 11.0°C (52°F) [RH = 100%]
Pressure (altimeter): 29.53 inches Hg (1000.0 mb)
Winds: from the NE (50 degrees) at 16 MPH (14 knots; 7.2 m/s)
Visibility: 1.24 miles (2.00 km)
Ceiling: 400 feet AGL
Clouds: few clouds at 200 feet AGL
scattered clouds at 300 feet AGL
broken clouds at 400 feet AGL
Weather: -SHRA BR  (light rain showers, mist)

METAR text: RJCN 152337Z 06015G25KT 2300 SHRA BR FEW002 SCT003 BKN004 11/11 Q1001 RMK 1ST002 4ST003 7ST004 A2956
Conditions at: RJCN (NAKASHIBETSU ARP, JP) observed 2337 UTC 15 June 2019
Temperature: 11.0°C (52°F)
Dewpoint: 11.0°C (52°F) [RH = 100%]
Pressure (altimeter): 29.56 inches Hg (1001.0 mb)
Winds: from the ENE (60 degrees) at 17 MPH (15 knots; 7.7 m/s)
gusting to 29 MPH (25 knots; 12.9 m/s)
Visibility: 1.43 miles (2.30 km)
Ceiling: 400 feet AGL
Clouds: few clouds at 200 feet AGL
scattered clouds at 300 feet AGL
broken clouds at 400 feet AGL
Weather: SHRA BR  (rain showers, mist)

METAR text: RJCN 152330Z 06016KT 2300 -SHRA BR FEW002 SCT003 BKN004 11/11 Q1001
Conditions at: RJCN (NAKASHIBETSU ARP, JP) observed 2330 UTC 15 June 2019
Temperature: 11.0°C (52°F)
Dewpoint: 11.0°C (52°F) [RH = 100%]
Pressure (altimeter): 29.56 inches Hg (1001.0 mb)
Winds: from the ENE (60 degrees) at 18 MPH (16 knots; 8.2 m/s)
Visibility: 1.43 miles (2.30 km)
Ceiling: 400 feet AGL
Clouds: few clouds at 200 feet AGL
scattered clouds at 300 feet AGL
broken clouds at 400 feet AGL
Weather: -SHRA BR  (light rain showers, mist)